Time;durP1;ratioP1;P1;durP2;ratioP2;P2;SDS_P1;SDS_P2;PMS_P1;PMS_P2;Temp;Humidity;BMP_temperature;BMP_pressure;BME280_temperature;BME280_humidity;BME280_pressure;Samples;Min_cycle;Max_cycle;Signal;HPM_P1;HPM_P2
2022/10/29 00:01:01;;;;;;;17.95;5.30;;;;;;;14.45;100.00;101929.56;2081035;28;20065;-75
2022/10/29 00:02:05;;;;;;;22.63;5.63;;;;;;;14.43;100.00;101924.19;2080670;28;20037;-73
2022/10/29 00:03:07;;;;;;;20.35;5.80;;;;;;;14.42;100.00;101922.41;2079903;28;20038;-76
2022/10/29 00:04:09;;;;;;;16.15;5.80;;;;;;;14.40;100.00;101924.25;2081547;28;22064;-73
2022/10/29 00:05:11;;;;;;;16.98;5.72;;;;;;;14.39;100.00;101927.91;2080471;28;20093;-75
2022/10/29 00:06:13;;;;;;;25.08;6.60;;;;;;;14.39;100.00;101926.97;2081094;28;20041;-73
2022/10/29 00:07:15;;;;;;;17.40;6.38;;;;;;;14.36;100.00;101938.72;2080167;28;31202;-73
2022/10/29 00:08:17;;;;;;;19.27;5.45;;;;;;;14.33;100.00;101944.19;2080427;28;36647;-75
2022/10/29 00:09:19;;;;;;;27.15;6.15;;;;;;;14.35;100.00;101942.34;2079582;28;29412;-74
2022/10/29 00:10:21;;;;;;;22.90;6.45;;;;;;;14.34;100.00;101937.88;2072502;28;20050;-74
2022/10/29 00:11:23;;;;;;;16.90;5.78;;;;;;;14.30;100.00;101939.75;2080335;28;20053;-74
2022/10/29 00:12:26;;;;;;;23.52;6.18;;;;;;;14.26;100.00;101929.94;2088562;28;20026;-75
2022/10/29 00:13:28;;;;;;;23.88;5.85;;;;;;;14.28;100.00;101932.63;2088693;28;20902;-75
2022/10/29 00:14:29;;;;;;;19.60;6.07;;;;;;;14.24;100.00;101934.50;2087988;28;34077;-74
2022/10/29 00:15:31;;;;;;;22.50;6.15;;;;;;;14.24;100.00;101939.00;2082395;28;20538;-75
2022/10/29 00:16:37;;;;;;;15.68;5.70;;;;;;;14.23;100.00;101937.22;2080584;28;20152;-75
2022/10/29 00:17:43;;;;;;;27.67;6.45;;;;;;;14.22;100.00;101939.03;2088253;28;33201;-75
2022/10/29 00:18:47;;;;;;;23.33;5.82;;;;;;;14.20;100.00;101938.19;2072345;28;20089;-75
2022/10/29 00:19:49;;;;;;;25.85;6.38;;;;;;;14.22;100.00;101946.25;2072761;28;36227;-75
2022/10/29 00:21:00;;;;;;;17.70;5.97;;;;;;;14.20;100.00;101938.19;2080863;28;27681;-75
2022/10/29 00:22:02;;;;;;;18.08;5.78;;;;;;;14.17;100.00;101938.25;2080279;28;32353;-75
2022/10/29 00:23:04;;;;;;;22.05;5.82;;;;;;;14.14;100.00;101941.03;2079521;28;40377;-75
2022/10/29 00:24:09;;;;;;;17.92;5.30;;;;;;;14.16;100.00;101940.97;2071007;28;35260;-73
2022/10/29 00:25:11;;;;;;;19.63;5.88;;;;;;;14.13;100.00;101944.63;2072020;28;30651;-74
2022/10/29 00:26:14;;;;;;;25.25;6.47;;;;;;;14.13;100.00;101941.94;2072721;28;34580;-75
2022/10/29 00:27:17;;;;;;;18.92;5.80;;;;;;;14.09;100.00;101935.72;2072440;28;20049;-74
2022/10/29 00:28:18;;;;;;;16.00;5.35;;;;;;;14.06;100.00;101941.16;2080302;28;20057;-74
2022/10/29 00:29:20;;;;;;;18.23;5.47;;;;;;;14.04;100.00;101942.13;2072040;28;29900;-73
2022/10/29 00:30:22;;;;;;;17.33;5.32;;;;;;;13.99;100.00;101947.59;2071963;28;21314;-75
2022/10/29 00:31:24;;;;;;;19.40;5.38;;;;;;;13.97;100.00;101943.19;2072921;28;22914;-74
2022/10/29 00:32:26;;;;;;;18.63;5.45;;;;;;;13.92;100.00;101940.56;2080120;28;20042;-74
2022/10/29 00:33:27;;;;;;;18.20;5.47;;;;;;;13.88;100.00;101938.88;2071751;28;36822;-74
2022/10/29 00:34:29;;;;;;;17.00;5.28;;;;;;;13.86;100.00;101946.09;2055312;28;33344;-75
2022/10/29 00:35:31;;;;;;;14.75;5.57;;;;;;;13.83;100.00;101938.06;2063959;28;37345;-75
2022/10/29 00:36:33;;;;;;;20.95;5.78;;;;;;;13.82;100.00;101944.38;2063116;28;30907;-73
2022/10/29 00:37:34;;;;;;;23.23;6.53;;;;;;;13.81;100.00;101945.31;2063612;28;31553;-74
2022/10/29 00:38:36;;;;;;;29.30;6.70;;;;;;;13.78;100.00;101939.97;2072900;28;20042;-74
2022/10/29 00:39:38;;;;;;;24.27;6.15;;;;;;;13.77;100.00;101944.47;2071876;28;31514;-74
2022/10/29 00:40:40;;;;;;;21.45;7.18;;;;;;;13.75;100.00;101947.19;2072322;28;32190;-75
2022/10/29 00:41:41;;;;;;;21.15;7.30;;;;;;;13.79;100.00;101952.53;2071966;28;30779;-74
2022/10/29 00:42:43;;;;;;;24.60;6.93;;;;;;;13.76;100.00;101950.75;2071598;28;37851;-74
2022/10/29 00:43:52;;;;;;;25.75;7.68;;;;;;;13.79;100.00;101947.13;2071479;28;34379;-73
2022/10/29 00:44:53;;;;;;;19.33;7.15;;;;;;;13.74;100.00;101945.41;2072370;28;32198;-73
2022/10/29 00:46:01;;;;;;;15.55;6.78;;;;;;;13.72;100.00;101947.25;2074654;28;30446;-74
2022/10/29 00:47:25;;;;;;;24.73;6.80;;;;;;;13.71;100.00;101948.19;2072475;28;27084;-74
2022/10/29 00:48:30;;;;;;;18.13;5.53;;;;;;;13.68;100.00;101953.63;2071624;28;38485;-74
2022/10/29 00:49:36;;;;;;;23.63;6.80;;;;;;;13.70;100.00;101950.91;2072644;28;28053;-73
2022/10/29 00:50:40;;;;;;;18.17;6.88;;;;;;;13.72;100.00;101952.63;2071213;28;35736;-75
2022/10/29 00:51:45;;;;;;;20.80;6.78;;;;;;;13.72;100.00;101949.94;2071663;28;30965;-74
2022/10/29 00:52:51;;;;;;;23.95;6.85;;;;;;;13.76;100.00;101958.84;2071700;28;35603;-75
2022/10/29 00:54:02;;;;;;;23.35;7.32;;;;;;;13.76;100.00;101956.16;2071870;28;38471;-75
2022/10/29 00:55:08;;;;;;;25.33;7.40;;;;;;;13.75;100.00;101960.66;2071993;28;36199;-75
2022/10/29 00:56:11;;;;;;;24.70;7.05;;;;;;;13.74;100.00;101956.16;2063484;28;37663;-75
2022/10/29 00:57:28;;;;;;;21.85;5.60;;;;;;;13.72;100.00;101955.31;2072397;28;32968;-73
2022/10/29 00:58:30;;;;;;;24.25;6.40;;;;;;;13.69;100.00;101946.41;2077360;28;38184;-74
2022/10/29 00:59:32;;;;;;;20.98;6.30;;;;;;;13.67;100.00;101954.50;2071750;28;35928;-74
2022/10/29 01:00:34;;;;;;;14.60;5.75;;;;;;;13.63;100.00;101958.19;2072494;28;37821;-74
2022/10/29 01:01:36;;;;;;;22.05;6.70;;;;;;;13.61;100.00;101956.47;2071784;28;38604;-71
2022/10/29 01:02:38;;;;;;;23.75;7.07;;;;;;;13.63;100.00;101960.88;2072145;28;37063;-75
2022/10/29 01:03:42;;;;;;;20.75;6.75;;;;;;;13.63;100.00;101965.38;2072053;28;20136;-75
2022/10/29 01:04:45;;;;;;;20.15;6.53;;;;;;;13.62;100.00;101971.69;2071476;28;39477;-74
2022/10/29 01:05:48;;;;;;;23.02;6.43;;;;;;;13.62;100.00;101974.38;2071396;28;29777;-73
2022/10/29 01:06:51;;;;;;;25.23;7.93;;;;;;;13.62;100.00;101969.91;2080361;28;33437;-75
2022/10/29 01:07:52;;;;;;;20.75;6.18;;;;;;;13.59;100.00;101967.25;2086216;28;39605;-75
2022/10/29 01:08:54;;;;;;;20.13;6.05;;;;;;;13.57;100.00;101969.09;2079739;28;28349;-74
2022/10/29 01:09:56;;;;;;;15.63;5.50;;;;;;;13.57;100.00;101958.31;2078806;28;36904;-74
2022/10/29 01:11:25;;;;;;;23.60;6.35;;;;;;;13.54;100.00;101959.25;2080505;28;30845;-74
2022/10/29 01:13:08;;;;;;;23.77;6.90;;;;;;;13.53;100.00;101959.28;2088228;28;34636;-75
2022/10/29 01:14:27;;;;;;;20.88;5.82;;;;;;;13.50;100.00;101968.31;2087808;28;36809;-74
2022/10/29 01:16:27;;;;;;;19.25;5.80;;;;;;;13.48;100.00;101974.66;2093435;28;33339;-73
2022/10/29 01:18:19;;;;;;;19.67;6.28;;;;;;;13.43;100.00;101973.84;2086895;28;33801;-73
2022/10/29 01:19:48;;;;;;;20.75;6.10;;;;;;;13.40;100.00;101973.88;2087764;28;35904;-76
2022/10/29 01:21:34;;;;;;;19.98;6.15;;;;;;;13.37;100.00;101977.53;2088918;28;20842;-73
2022/10/29 01:22:49;;;;;;;27.08;6.85;;;;;;;13.39;100.00;101981.06;2087491;28;36774;-75
2022/10/29 01:24:34;;;;;;;19.35;5.68;;;;;;;13.34;100.00;101973.06;2081489;28;38721;-75
2022/10/29 01:26:16;;;;;;;23.00;6.97;;;;;;;13.33;100.00;101974.00;2077774;28;34983;-74
2022/10/29 01:27:36;;;;;;;23.40;7.10;;;;;;;13.30;100.00;101982.09;2080084;28;37914;-75
2022/10/29 01:29:10;;;;;;;22.40;5.93;;;;;;;13.28;100.00;101978.53;2079942;28;33000;-74
2022/10/29 01:30:20;;;;;;;18.33;6.00;;;;;;;13.26;100.00;101975.00;2079309;28;31785;-74
2022/10/29 01:31:43;;;;;;;24.27;7.25;;;;;;;13.27;100.00;101974.06;2080534;28;20049;-74
2022/10/29 01:33:15;;;;;;;24.23;7.03;;;;;;;13.24;100.00;101975.91;2079928;28;34804;-74
2022/10/29 01:34:38;;;;;;;15.35;5.30;;;;;;;13.22;100.00;101989.38;2080427;28;26486;-74
2022/10/29 01:36:02;;;;;;;19.73;5.80;;;;;;;13.22;100.00;101984.00;2080056;28;37798;-73
2022/10/29 01:37:19;;;;;;;16.73;5.63;;;;;;;13.23;100.00;101976.84;2080573;28;20042;-74
2022/10/29 01:38:33;;;;;;;23.13;6.45;;;;;;;13.21;100.00;101963.44;2075482;28;33453;-76
2022/10/29 01:39:56;;;;;;;17.77;5.47;;;;;;;13.22;100.00;101956.25;2072055;28;20035;-74
2022/10/29 01:41:50;;;;;;;33.63;7.75;;;;;;;13.20;100.00;101968.84;2071234;28;33670;-76
2022/10/29 01:43:26;;;;;;;20.27;6.43;;;;;;;13.16;100.00;101979.63;2053911;28;28446;-75
2022/10/29 01:44:59;;;;;;;20.75;5.63;;;;;;;13.15;100.00;101966.22;2054032;28;36091;-75
2022/10/29 01:46:18;;;;;;;26.77;6.50;;;;;;;13.16;100.00;101962.63;2071806;28;35035;-76
2022/10/29 01:47:26;;;;;;;37.55;7.75;;;;;;;13.16;100.00;101955.44;2078845;28;38949;-75
2022/10/29 01:48:38;;;;;;;21.23;7.03;;;;;;;13.17;100.00;101959.00;2072342;28;36933;-74
2022/10/29 01:49:46;;;;;;;17.08;5.68;;;;;;;13.16;100.00;101954.56;2057133;28;37304;-76
2022/10/29 01:50:56;;;;;;;24.38;6.68;;;;;;;13.18;100.00;101950.91;2065881;28;39165;-74
2022/10/29 01:52:00;;;;;;;21.88;6.38;;;;;;;13.17;100.00;101934.78;2071189;28;32059;-75
2022/10/29 01:53:05;;;;;;;24.70;6.15;;;;;;;13.17;100.00;101926.72;2072208;28;33902;-75
2022/10/29 01:54:10;;;;;;;23.42;6.35;;;;;;;13.17;100.00;101927.63;2078113;28;31087;-75
2022/10/29 01:55:20;;;;;;;18.02;6.20;;;;;;;13.17;100.00;101926.72;2070991;28;26521;-75
2022/10/29 01:56:22;;;;;;;24.92;6.97;;;;;;;13.15;100.00;101929.47;2064673;28;20094;-74
2022/10/29 01:57:24;;;;;;;19.50;6.07;;;;;;;13.14;100.00;101933.06;2072065;28;36647;-75
2022/10/29 01:58:25;;;;;;;20.35;5.55;;;;;;;13.16;100.00;101935.72;2078831;28;35141;-75
2022/10/29 01:59:31;;;;;;;23.23;6.80;;;;;;;13.17;100.00;101942.88;2078444;28;34604;-75
2022/10/29 02:01:12;;;;;;;25.17;6.57;;;;;;;13.13;100.00;101936.66;2077074;28;35561;-75
2022/10/29 02:02:32;;;;;;;20.67;6.72;;;;;;;13.13;100.00;101949.22;2080244;28;20050;-75
2022/10/29 02:03:50;;;;;;;22.63;6.40;;;;;;;13.08;100.00;101943.03;2079326;28;36901;-75
2022/10/29 02:05:29;;;;;;;23.42;6.40;;;;;;;13.05;100.00;101941.28;2079534;28;30027;-74
2022/10/29 02:07:01;;;;;;;16.60;6.03;;;;;;;12.97;100.00;101940.53;2077671;28;35336;-74
2022/10/29 02:08:31;;;;;;;17.77;5.75;;;;;;;12.90;100.00;101934.38;2079423;28;37856;-74
2022/10/29 02:10:09;;;;;;;25.67;6.68;;;;;;;12.84;100.00;101929.09;2078881;28;20035;-74
2022/10/29 02:11:25;;;;;;;25.38;7.60;;;;;;;12.79;100.00;101941.72;2042787;28;32389;-74
2022/10/29 02:12:35;;;;;;;21.77;7.20;;;;;;;12.74;100.00;101938.22;2076610;28;32643;-73
2022/10/29 02:13:48;;;;;;;21.50;7.07;;;;;;;12.70;100.00;101933.81;2081889;28;39233;-76
2022/10/29 02:14:54;;;;;;;25.83;7.38;;;;;;;12.65;100.00;101933.88;2076295;28;27378;-75
2022/10/29 02:15:57;;;;;;;24.88;7.68;;;;;;;12.63;100.00;101937.50;2071690;28;29705;-74
2022/10/29 02:17:01;;;;;;;17.90;6.35;;;;;;;12.58;100.00;101922.34;2079004;28;39145;-73
2022/10/29 02:18:06;;;;;;;22.90;7.10;;;;;;;12.56;100.00;101925.94;2079283;28;35410;-74
2022/10/29 02:19:08;;;;;;;24.17;6.53;;;;;;;12.51;100.00;101920.66;2081217;28;20053;-74
2022/10/29 02:20:12;;;;;;;24.70;7.63;;;;;;;12.48;100.00;101925.19;2079260;28;37017;-75
2022/10/29 02:21:16;;;;;;;23.80;7.50;;;;;;;12.47;100.00;101923.41;2079309;28;38005;-73
2022/10/29 02:22:18;;;;;;;24.00;7.20;;;;;;;12.44;100.00;101927.03;2071306;28;30663;-74
2022/10/29 02:23:19;;;;;;;15.90;6.15;;;;;;;12.38;100.00;101924.44;2079400;28;32145;-74
2022/10/29 02:24:21;;;;;;;22.08;7.50;;;;;;;12.33;100.00;101929.00;2080052;28;28591;-76
2022/10/29 02:25:23;;;;;;;29.55;7.13;;;;;;;12.30;100.00;101926.34;2079040;28;20050;-75
2022/10/29 02:26:28;;;;;;;21.27;7.15;;;;;;;12.26;100.00;101925.50;2079048;28;32526;-74
2022/10/29 02:27:29;;;;;;;23.02;7.18;;;;;;;12.23;100.00;101922.84;2080113;28;20547;-73
2022/10/29 02:28:31;;;;;;;19.58;6.55;;;;;;;12.18;100.00;101922.91;2077168;28;20085;-73
2022/10/29 02:29:34;;;;;;;21.52;7.80;;;;;;;12.18;100.00;101927.41;2082455;28;20131;-74
2022/10/29 02:30:36;;;;;;;17.83;6.95;;;;;;;12.16;100.00;101924.72;2087292;28;31507;-73
2022/10/29 02:31:37;;;;;;;23.65;8.00;;;;;;;12.13;100.00;101924.78;2080490;28;20124;-74
2022/10/29 02:32:39;;;;;;;19.67;6.93;;;;;;;12.11;100.00;101920.34;2080095;28;25402;-73
2022/10/29 02:33:41;;;;;;;20.10;6.60;;;;;;;12.06;100.00;101915.06;2078649;28;42517;-73
2022/10/29 02:34:42;;;;;;;22.15;7.38;;;;;;;12.02;100.00;101910.59;2079413;28;24965;-73
2022/10/29 02:35:44;;;;;;;22.70;6.97;;;;;;;11.99;100.00;101913.34;2087230;28;33888;-73
2022/10/29 02:36:46;;;;;;;25.63;8.23;;;;;;;11.94;100.00;101902.66;2079786;28;31472;-74
2022/10/29 02:37:47;;;;;;;20.42;7.55;;;;;;;11.92;100.00;101908.97;2079383;28;30939;-75
2022/10/29 02:38:52;;;;;;;27.55;8.35;;;;;;;11.86;100.00;101904.50;2082168;28;32225;-74
2022/10/29 02:39:54;;;;;;;22.02;7.32;;;;;;;11.82;100.00;101909.03;2087075;28;20977;-73
2022/10/29 02:40:55;;;;;;;16.15;6.28;;;;;;;11.78;100.00;101912.66;2086988;28;38068;-75
2022/10/29 02:41:57;;;;;;;21.90;6.80;;;;;;;11.73;100.00;101906.47;2079259;28;34821;-76
2022/10/29 02:42:59;;;;;;;18.77;6.63;;;;;;;11.69;100.00;101907.41;2071085;28;20093;-73
2022/10/29 02:44:01;;;;;;;24.23;7.25;;;;;;;11.65;100.00;101909.25;2070307;28;25906;-74
2022/10/29 02:45:05;;;;;;;22.75;7.47;;;;;;;11.68;100.00;101911.00;2071161;28;22425;-73
2022/10/29 02:46:15;;;;;;;21.45;8.38;;;;;;;11.70;100.00;101913.66;2071051;28;31178;-74
2022/10/29 02:47:17;;;;;;;21.13;8.48;;;;;;;11.73;100.00;101910.94;2070549;28;37760;-74
2022/10/29 02:48:19;;;;;;;31.30;10.13;;;;;;;11.73;100.00;101906.47;2071461;28;36581;-74
2022/10/29 02:49:20;;;;;;;30.80;10.00;;;;;;;11.73;100.00;101910.94;2070965;28;40418;-73
2022/10/29 02:50:22;;;;;;;28.80;10.23;;;;;;;11.72;100.00;101911.84;2072791;28;28972;-74
2022/10/29 02:51:24;;;;;;;28.58;9.40;;;;;;;11.68;100.00;101902.94;2071179;28;30075;-74
2022/10/29 02:52:26;;;;;;;24.95;8.43;;;;;;;11.63;100.00;101904.81;2070925;28;34623;-73
2022/10/29 02:53:27;;;;;;;20.17;7.68;;;;;;;11.59;100.00;101905.75;2070739;28;31611;-73
2022/10/29 02:54:29;;;;;;;25.23;9.60;;;;;;;11.57;100.00;101899.50;2071172;28;20035;-73
2022/10/29 02:55:31;;;;;;;24.48;8.98;;;;;;;11.54;100.00;101899.53;2062927;28;20907;-73
2022/10/29 02:56:33;;;;;;;28.42;9.27;;;;;;;11.52;100.00;101904.94;2091963;22;38964;-80
2022/10/29 02:57:35;;;;;;;26.55;9.77;;;;;;;11.50;100.00;101896.00;2080846;28;34017;-80
2022/10/29 02:58:36;;;;;;;32.33;10.68;;;;;;;11.54;100.00;101886.13;2078791;28;20034;-80
2022/10/29 02:59:38;;;;;;;27.35;9.25;;;;;;;11.55;100.00;101890.59;2078555;28;38052;-81
2022/10/29 03:00:40;;;;;;;26.77;9.85;;;;;;;11.53;100.00;101884.38;2078845;28;39180;-78
2022/10/29 03:01:41;;;;;;;27.02;11.18;;;;;;;11.53;100.00;101889.72;2079031;28;33427;-79
2022/10/29 03:02:43;;;;;;;38.05;12.65;;;;;;;11.52;100.00;101893.31;2079208;28;32362;-79
2022/10/29 03:03:45;;;;;;;25.92;10.13;;;;;;;11.49;100.00;101890.69;2080485;28;20034;-79
2022/10/29 03:04:47;;;;;;;31.90;10.85;;;;;;;11.46;100.00;101894.28;2079487;28;34474;-79
2022/10/29 03:05:49;;;;;;;27.17;10.55;;;;;;;11.42;100.00;101889.84;2078922;28;35320;-79
2022/10/29 03:06:53;;;;;;;33.83;10.60;;;;;;;11.38;100.00;101893.50;2079545;28;20903;-79
2022/10/29 03:07:56;;;;;;;33.40;10.27;;;;;;;11.33;100.00;101887.28;2080236;28;20891;-79
2022/10/29 03:08:57;;;;;;;28.05;8.98;;;;;;;11.31;100.00;101889.97;2079617;28;30349;-79
2022/10/29 03:09:59;;;;;;;18.95;8.63;;;;;;;11.26;100.00;101881.09;2080498;28;20038;-79
2022/10/29 03:11:01;;;;;;;26.17;10.30;;;;;;;11.21;100.00;101883.81;2079828;28;33032;-79
2022/10/29 03:12:03;;;;;;;19.45;8.05;;;;;;;11.19;100.00;101885.63;2075592;28;35597;-78
2022/10/29 03:13:04;;;;;;;28.35;10.88;;;;;;;11.16;100.00;101880.31;2078849;28;37339;-81
2022/10/29 03:14:08;;;;;;;32.00;11.70;;;;;;;11.14;100.00;101881.22;2079106;28;36924;-79
2022/10/29 03:15:12;;;;;;;30.10;11.85;;;;;;;11.11;100.00;101882.16;2078949;28;20846;-79
2022/10/29 03:16:14;;;;;;;30.52;10.30;;;;;;;11.09;100.00;101886.63;2079045;28;37789;-79
2022/10/29 03:17:16;;;;;;;23.15;9.85;;;;;;;11.04;100.00;101881.31;2079040;28;29380;-79
2022/10/29 03:18:17;;;;;;;23.63;8.55;;;;;;;11.03;100.00;101894.72;2071671;28;31966;-78
2022/10/29 03:19:22;;;;;;;20.83;8.27;;;;;;;10.99;100.00;101890.31;2071890;28;32322;-79
2022/10/29 03:20:23;;;;;;;21.92;8.32;;;;;;;10.94;100.00;101894.81;2071745;28;35094;-79
2022/10/29 03:21:25;;;;;;;20.48;8.27;;;;;;;10.91;100.00;101898.41;2072434;28;33025;-79
2022/10/29 03:22:26;;;;;;;23.30;9.15;;;;;;;10.85;100.00;101899.34;2071477;28;34438;-79
2022/10/29 03:23:31;;;;;;;21.75;8.60;;;;;;;10.82;100.00;101887.75;2071885;28;20046;-80
2022/10/29 03:24:32;;;;;;;23.70;9.77;;;;;;;10.79;100.00;101888.69;2071554;28;28086;-80
2022/10/29 03:25:34;;;;;;;18.15;7.75;;;;;;;10.79;100.00;101879.78;2070987;28;30911;-80
2022/10/29 03:26:38;;;;;;;21.15;9.18;;;;;;;10.75;100.00;101881.59;2071095;28;20051;-80
2022/10/29 03:27:44;;;;;;;20.65;8.20;;;;;;;10.71;100.00;101882.50;2072860;28;32338;-80
2022/10/29 03:28:46;;;;;;;26.00;8.63;;;;;;;10.66;100.00;101884.34;2071554;28;35886;-79
2022/10/29 03:29:48;;;;;;;20.25;7.93;;;;;;;10.62;100.00;101883.47;2071959;28;20902;-80
2022/10/29 03:30:50;;;;;;;25.70;9.48;;;;;;;10.59;100.00;101883.50;2071640;28;36595;-80
2022/10/29 03:31:52;;;;;;;26.77;9.45;;;;;;;10.56;100.00;101885.31;2071609;28;30175;-80
2022/10/29 03:32:53;;;;;;;27.13;9.57;;;;;;;10.53;100.00;101878.16;2071320;28;25565;-79
2022/10/29 03:33:55;;;;;;;21.08;9.85;;;;;;;10.48;100.00;101870.19;2071129;28;37365;-80
2022/10/29 03:35:00;;;;;;;28.90;11.30;;;;;;;10.46;100.00;101876.44;2072007;28;20041;-79
2022/10/29 03:36:05;;;;;;;23.70;9.88;;;;;;;10.45;100.00;101882.72;2071206;28;35229;-80
2022/10/29 03:37:07;;;;;;;21.70;9.82;;;;;;;10.43;100.00;101877.38;2073465;28;34489;-80
2022/10/29 03:38:08;;;;;;;32.75;11.95;;;;;;;10.42;100.00;101874.69;2078851;28;34541;-79
2022/10/29 03:39:10;;;;;;;33.00;10.95;;;;;;;10.44;100.00;101875.56;2075822;28;32781;-79
2022/10/29 03:40:12;;;;;;;20.20;10.02;;;;;;;10.47;100.00;101872.88;2078872;28;32816;-79
2022/10/29 03:41:14;;;;;;;28.10;11.27;;;;;;;10.48;100.00;101874.63;2079644;28;32559;-80
2022/10/29 03:42:15;;;;;;;26.00;12.40;;;;;;;10.47;100.00;101872.88;2079098;28;35324;-79
2022/10/29 03:43:20;;;;;;;39.95;13.60;;;;;;;10.47;100.00;101868.41;2079570;28;34788;-79
2022/10/29 03:44:22;;;;;;;28.30;12.27;;;;;;;10.53;100.00;101875.50;2079096;28;38891;-80
2022/10/29 03:45:24;;;;;;;30.63;14.35;;;;;;;10.56;100.00;101872.81;2078512;28;36753;-79
2022/10/29 03:46:26;;;;;;;30.25;14.00;;;;;;;10.56;100.00;101875.47;2078902;28;39881;-80
2022/10/29 03:47:28;;;;;;;33.00;14.00;;;;;;;10.53;100.00;101877.28;2079921;28;24732;-79
2022/10/29 03:48:30;;;;;;;24.15;11.65;;;;;;;10.50;100.00;101883.56;2080333;28;20100;-79
2022/10/29 03:49:32;;;;;;;21.38;9.82;;;;;;;10.45;100.00;101886.28;2079572;28;34337;-80
2022/10/29 03:50:33;;;;;;;25.55;11.85;;;;;;;10.41;100.00;101888.97;2079343;28;37039;-80
2022/10/29 03:51:35;;;;;;;30.17;11.45;;;;;;;10.36;100.00;101883.66;2081267;28;33492;-79
2022/10/29 03:52:37;;;;;;;24.63;11.82;;;;;;;10.34;100.00;101887.22;2078689;28;33696;-80
2022/10/29 03:53:39;;;;;;;28.45;12.98;;;;;;;10.31;100.00;101889.03;2079975;28;20156;-79
2022/10/29 03:54:40;;;;;;;29.33;10.73;;;;;;;10.27;100.00;101887.25;2079406;28;37688;-79
2022/10/29 03:55:42;;;;;;;26.65;11.25;;;;;;;10.24;100.00;101887.25;2081341;28;34193;-79
2022/10/29 03:56:44;;;;;;;31.88;11.95;;;;;;;10.23;100.00;101890.84;2084448;28;20038;-79
2022/10/29 03:57:45;;;;;;;25.77;12.00;;;;;;;10.26;100.00;101896.16;2085478;28;33751;-80
2022/10/29 03:58:47;;;;;;;31.02;11.93;;;;;;;10.25;100.00;101898.88;2085344;28;30658;-79
2022/10/29 03:59:51;;;;;;;31.02;12.98;;;;;;;10.26;100.00;101901.50;2085520;28;31168;-79
2022/10/29 04:01:06;;;;;;;35.35;13.45;;;;;;;10.26;100.00;101900.63;2083204;28;33850;-80
2022/10/29 04:02:09;;;;;;;29.75;12.63;;;;;;;10.26;100.00;101898.84;2079093;28;32574;-79
2022/10/29 04:03:10;;;;;;;26.98;12.40;;;;;;;10.24;100.00;101911.34;2079161;28;33020;-80
2022/10/29 04:04:12;;;;;;;34.40;14.57;;;;;;;10.26;100.00;101916.69;2079402;28;35720;-80
2022/10/29 04:05:14;;;;;;;32.80;13.30;;;;;;;10.25;100.00;101915.81;2079219;28;30890;-80
2022/10/29 04:06:17;;;;;;;36.95;12.40;;;;;;;10.26;100.00;101908.66;2079429;28;38391;-78
2022/10/29 04:07:19;;;;;;;28.50;12.23;;;;;;;10.25;100.00;101918.50;2079727;28;29134;-80
2022/10/29 04:08:21;;;;;;;29.63;12.15;;;;;;;10.24;100.00;101923.84;2079439;28;40306;-80
2022/10/29 04:09:22;;;;;;;33.47;13.43;;;;;;;10.21;100.00;101918.50;2079025;28;30357;-80
2022/10/29 04:10:25;;;;;;;29.75;12.68;;;;;;;10.20;100.00;101920.31;2079846;28;20049;-80
2022/10/29 04:11:27;;;;;;;34.10;15.43;;;;;;;10.23;100.00;101922.06;2079136;28;31433;-80
2022/10/29 04:12:29;;;;;;;27.52;13.27;;;;;;;10.27;100.00;101919.38;2078915;28;37789;-80
2022/10/29 04:13:30;;;;;;;28.25;12.85;;;;;;;10.27;100.00;101916.69;2079419;28;32418;-80
2022/10/29 04:14:32;;;;;;;35.05;14.57;;;;;;;10.27;100.00;101930.06;2079123;28;39718;-79
2022/10/29 04:15:34;;;;;;;33.00;15.65;;;;;;;10.26;100.00;101916.69;2079487;28;35621;-80
2022/10/29 04:16:36;;;;;;;30.48;13.52;;;;;;;10.26;100.00;101922.94;2078692;28;35255;-79
2022/10/29 04:17:37;;;;;;;25.67;12.13;;;;;;;10.28;100.00;101925.59;2080059;28;33368;-80
2022/10/29 04:18:39;;;;;;;34.90;14.20;;;;;;;10.24;100.00;101922.06;2081580;28;20061;-80
2022/10/29 04:19:41;;;;;;;31.20;12.93;;;;;;;10.23;100.00;101917.63;2080410;28;37500;-80
2022/10/29 04:20:42;;;;;;;27.45;12.23;;;;;;;10.21;100.00;101924.78;2080996;28;30696;-80
2022/10/29 04:22:04;;;;;;;27.92;12.40;;;;;;;10.17;100.00;101922.09;2081438;28;20922;-80
2022/10/29 04:23:28;;;;;;;35.08;12.13;;;;;;;10.11;100.00;101920.34;2081343;28;20168;-80
2022/10/29 04:24:52;;;;;;;33.17;12.93;;;;;;;10.08;100.00;101912.34;2081576;28;20034;-79
2022/10/29 04:26:17;;;;;;;36.47;13.88;;;;;;;10.06;100.00;101892.72;2081085;28;20891;-80
2022/10/29 04:27:39;;;;;;;35.42;14.73;;;;;;;10.07;100.00;101894.53;2080740;28;20046;-80
2022/10/29 04:29:04;;;;;;;42.58;17.30;;;;;;;10.13;100.00;101894.47;2080593;28;20787;-80
2022/10/29 04:30:07;;;;;;;36.08;16.27;;;;;;;10.17;100.00;101901.56;2080474;28;42551;-80
2022/10/29 04:31:11;;;;;;;33.47;15.60;;;;;;;10.20;100.00;101903.38;2080353;28;31672;-79
2022/10/29 04:32:13;;;;;;;32.13;15.05;;;;;;;10.17;100.00;101912.28;2081075;28;20120;-80
2022/10/29 04:33:15;;;;;;;33.38;14.75;;;;;;;10.12;100.00;101914.09;2080214;28;32674;-80
2022/10/29 04:34:17;;;;;;;20.50;10.90;;;;;;;10.10;100.00;101915.88;2080084;28;35614;-80
2022/10/29 04:35:18;;;;;;;30.63;12.68;;;;;;;10.03;100.00;101923.09;2080866;28;37435;-81
2022/10/29 04:36:20;;;;;;;28.13;12.45;;;;;;;9.98;100.00;101915.94;2080715;28;33041;-79
2022/10/29 04:37:22;;;;;;;24.25;11.02;;;;;;;9.95;100.00;101916.88;2081075;28;20042;-81
2022/10/29 04:38:27;;;;;;;35.03;14.55;;;;;;;9.93;100.00;101919.53;2080603;28;31258;-81
2022/10/29 04:39:28;;;;;;;28.77;14.10;;;;;;;9.93;100.00;101921.34;2080505;28;31964;-81
2022/10/29 04:40:30;;;;;;;36.17;15.50;;;;;;;9.91;100.00;101921.34;2080616;28;36433;-80
2022/10/29 04:41:32;;;;;;;31.77;14.68;;;;;;;9.90;100.00;101914.19;2080650;28;31624;-80
2022/10/29 04:42:38;;;;;;;23.48;12.32;;;;;;;9.90;100.00;101916.00;2080017;28;33278;-80
2022/10/29 04:43:40;;;;;;;28.08;10.65;;;;;;;9.87;100.00;101918.66;2080953;28;31260;-80
2022/10/29 04:44:41;;;;;;;23.55;11.25;;;;;;;9.80;100.00;101909.81;2080592;28;37103;-81
2022/10/29 04:45:43;;;;;;;24.05;11.13;;;;;;;9.74;100.00;101910.72;2080446;28;36608;-81
2022/10/29 04:46:45;;;;;;;34.75;13.65;;;;;;;9.74;100.00;101913.41;2081048;28;26076;-81
2022/10/29 04:47:46;;;;;;;27.80;13.93;;;;;;;9.76;100.00;101902.66;2080380;28;40019;-81
2022/10/29 04:48:48;;;;;;;30.27;13.25;;;;;;;9.74;100.00;101910.72;2080973;28;20038;-80
2022/10/29 04:49:50;;;;;;;29.33;12.95;;;;;;;9.74;100.00;101912.47;2081242;28;34294;-81
2022/10/29 04:50:52;;;;;;;25.48;11.82;;;;;;;9.71;100.00;101912.53;2080439;28;35632;-80
2022/10/29 04:51:54;;;;;;;27.15;12.02;;;;;;;9.68;100.00;101917.88;2081095;28;20942;-80
2022/10/29 04:53:00;;;;;;;27.75;13.07;;;;;;;9.66;100.00;101917.88;2080250;28;35482;-79
2022/10/29 04:54:02;;;;;;;29.83;12.70;;;;;;;9.63;100.00;101925.91;2080613;28;20184;-79
2022/10/29 04:55:05;;;;;;;28.95;12.57;;;;;;;9.62;100.00;101918.78;2079735;28;29520;-80
2022/10/29 04:56:10;;;;;;;23.73;11.70;;;;;;;9.61;100.00;101917.00;2081337;28;20953;-80
2022/10/29 04:57:12;;;;;;;22.80;12.25;;;;;;;9.59;100.00;101913.44;2080349;28;32590;-80
2022/10/29 04:58:18;;;;;;;25.65;11.90;;;;;;;9.60;100.00;101917.00;2080499;28;33085;-80
2022/10/29 04:59:19;;;;;;;32.58;14.10;;;;;;;9.66;100.00;101920.53;2080527;28;33302;-79
2022/10/29 05:00:22;;;;;;;33.72;15.55;;;;;;;9.71;100.00;101925.91;2080603;28;35052;-80
2022/10/29 05:01:26;;;;;;;27.67;12.98;;;;;;;9.69;100.00;101919.63;2080131;28;36823;-80
2022/10/29 05:02:28;;;;;;;27.80;13.85;;;;;;;9.68;100.00;101923.22;2079968;28;27747;-80